»·PEaware :: N8WG KONP-KSEA

N8WG :: KONP-KSEA

FLIGHT INFORMATION

Flight Status: Arrived
Operator: Privately registered:
United States
More flights under this callsign
Pilot: Austin M. (5128)
Aircraft: BEECH AIRCRAFT SUPER KING AIR COMMUTER
(BE20)
More flights by this aircraft type
Origin: KONP Newport Mun
United States
Destination: KSEA Seattle-Tacoma Intl
United States
More flights between these airports :: More routes between these airports
Route: +ONP V182 UBG BTG HAWKS6
File this flight plan on PilotEdge
Remarks:
Altitude:
(Current/Filed)
190ft
Speed:
(Current/Filed)
260kts
Departed: 18-Oct-17 07:04 PM
Arrived: 18-Oct-17 08:22 PM
Distance/Time
Traveled:
187nm/1:18
Distance/Time
To Go:
Arrived

Flight Plot

Page will automatically refresh every two minutes.

Flight plan parsing failed; only flown route is shown


Map Options




Map Legend


Flown Route
Filed Route
Departure Airport
Arrival Airport
Navaid (VOR, NDB)
Fix

Horizontal Profiles

Position Reports

Time Latitude Longitude Heading Altitude Ground
Speed
18-Oct-17 18:48 45.424997 -123.815982 184 32ft 0kts
18-Oct-17 18:49 45.424997 -123.815982 184 32ft 0kts
18-Oct-17 18:50 45.424433 -123.818042 244 30ft 0kts
18-Oct-17 18:51 45.424433 -123.818042 244 30ft 0kts
18-Oct-17 18:52 45.424433 -123.818042 244 30ft 0kts
18-Oct-17 18:53 45.424433 -123.818042 244 30ft 0kts
18-Oct-17 18:54 45.424433 -123.818042 244 30ft 0kts
18-Oct-17 18:55 45.424433 -123.818042 244 30ft 0kts
18-Oct-17 18:56 45.424433 -123.818042 244 30ft 0kts
18-Oct-17 18:57 45.424433 -123.818042 244 30ft 0kts
18-Oct-17 18:58 45.424433 -123.818042 244 30ft 0kts
18-Oct-17 18:59 45.424433 -123.818042 244 30ft 0kts
18-Oct-17 19:00 45.424433 -123.818042 244 30ft 0kts
18-Oct-17 19:01 45.424433 -123.818042 244 30ft 0kts
18-Oct-17 19:02 45.424433 -123.818042 244 30ft 0kts
18-Oct-17 19:03 45.424433 -123.818042 244 30ft 0kts
18-Oct-17 19:04 45.424433 -123.818042 244 30ft 0kts
18-Oct-17 19:05 45.424433 -123.818042 244 30ft 0kts
18-Oct-17 19:06 45.424433 -123.818042 244 30ft 0kts
18-Oct-17 19:07 45.424433 -123.818042 244 30ft 0kts
18-Oct-17 19:08 45.424433 -123.818043 244 30ft 0kts
18-Oct-17 19:09 45.421518 -123.817076 158 33ft 96kts
18-Oct-17 19:10 45.389720 -123.816716 226 2471ft 160kts
18-Oct-17 19:11 45.364850 -123.852870 191 4733ft 146kts
18-Oct-17 19:12 45.346162 -123.827007 75 6360ft 169kts
18-Oct-17 19:13 44.586774 -124.059362 177 135ft 0kts
18-Oct-17 19:14 44.586774 -124.059362 177 135ft 0kts
18-Oct-17 19:15 44.586774 -124.059362 177 135ft 0kts
18-Oct-17 19:16 44.553527 -124.053455 175 1514ft 181kts
18-Oct-17 19:17 44.528304 -124.095190 246 3589ft 155kts
18-Oct-17 19:18 44.518924 -124.144518 250 5898ft 127kts
18-Oct-17 19:19 44.509031 -124.170047 161 7847ft 128kts
18-Oct-17 19:20 44.494325 -124.113173 116 9213ft 172kts
18-Oct-17 19:21 44.521995 -124.071590 357 9993ft 218kts
18-Oct-17 19:22 44.574461 -124.052513 26 10433ft 269kts
18-Oct-17 19:23 44.621568 -123.997723 40 10857ft 285kts
18-Oct-17 19:24 44.668021 -123.934987 40 11275ft 289kts
18-Oct-17 19:25 44.718242 -123.866387 39 12359ft 271kts
18-Oct-17 19:26 44.763113 -123.805232 39 13764ft 256kts
18-Oct-17 19:27 44.806572 -123.745351 39 15207ft 247kts
18-Oct-17 19:28 44.847807 -123.688289 39 16633ft 237kts
18-Oct-17 19:29 44.886723 -123.634291 38 18040ft 226kts
18-Oct-17 19:30 44.925827 -123.580191 39 18978ft 257kts
18-Oct-17 19:31 44.976762 -123.509499 40 18968ft 313kts
18-Oct-17 19:32 45.035906 -123.426724 40 18994ft 331kts
18-Oct-17 19:33 45.097923 -123.339824 40 18950ft 337kts
18-Oct-17 19:34 45.155987 -123.258724 42 18897ft 346kts
18-Oct-17 19:35 45.210301 -123.181823 42 18952ft 348kts
18-Oct-17 19:36 45.262739 -123.107679 42 18987ft 349kts
18-Oct-17 19:37 45.310537 -123.039880 42 19022ft 349kts
18-Oct-17 19:38 45.364540 -122.967447 29 18942ft 348kts
18-Oct-17 19:39 45.424787 -122.909322 28 19033ft 343kts
18-Oct-17 19:40 45.482490 -122.853862 28 18908ft 337kts
18-Oct-17 19:41 45.538623 -122.799266 29 18868ft 334kts
18-Oct-17 19:42 45.592904 -122.746135 29 18860ft 331kts
18-Oct-17 19:43 45.640258 -122.699637 29 18862ft 330kts
18-Oct-17 19:44 45.713773 -122.627283 28 18867ft 330kts
18-Oct-17 19:45 45.779526 -122.602575 339 18874ft 290kts
18-Oct-17 19:46 45.848799 -122.618512 336 18859ft 289kts
18-Oct-17 19:47 45.918101 -122.635519 336 18845ft 292kts
18-Oct-17 19:48 45.986782 -122.652412 336 18833ft 293kts
18-Oct-17 19:49 46.035143 -122.664341 336 18825ft 293kts
18-Oct-17 19:50 46.091785 -122.678317 337 18816ft 294kts
18-Oct-17 19:51 46.150701 -122.690118 339 18816ft 295kts
18-Oct-17 19:52 46.210470 -122.701927 339 18816ft 295kts
18-Oct-17 19:53 46.272474 -122.714245 339 18553ft 297kts
18-Oct-17 19:54 46.331960 -122.724297 345 18090ft 304kts
18-Oct-17 19:55 46.397863 -122.726525 346 17532ft 297kts
18-Oct-17 19:56 46.459339 -122.728740 346 16800ft 296kts
18-Oct-17 19:57 46.530947 -122.731326 346 16020ft 293kts
18-Oct-17 19:58 46.598348 -122.733761 346 15305ft 290kts
18-Oct-17 19:59 46.669951 -122.736359 346 14585ft 288kts
18-Oct-17 20:00 46.739216 -122.738853 346 13950ft 285kts
18-Oct-17 20:01 46.796467 -122.726243 28 13318ft 316kts
18-Oct-17 20:02 46.847092 -122.667595 34 12815ft 311kts
18-Oct-17 20:03 46.897455 -122.609712 33 11844ft 306kts
18-Oct-17 20:04 46.946941 -122.558930 11 11664ft 275kts
18-Oct-17 20:05 47.005344 -122.533504 8 10878ft 284kts
18-Oct-17 20:06 47.063805 -122.507813 10 10106ft 280kts
18-Oct-17 20:07 47.111700 -122.494836 359 9720ft 259kts
18-Oct-17 20:08 47.154959 -122.487193 358 9718ft 256kts
18-Oct-17 20:09 47.198541 -122.479376 357 9831ft 266kts
18-Oct-17 20:10 47.245164 -122.472501 358 9256ft 279kts
18-Oct-17 20:11 47.299181 -122.464107 359 8760ft 274kts
18-Oct-17 20:12 47.353122 -122.456063 356 8194ft 271kts
18-Oct-17 20:13 47.408319 -122.456004 353 7345ft 259kts
18-Oct-17 20:14 47.456755 -122.456132 355 6533ft 255kts
18-Oct-17 20:15 47.507132 -122.444704 8 5625ft 257kts
18-Oct-17 20:16 47.559123 -122.442107 358 4841ft 249kts
18-Oct-17 20:17 47.615798 -122.441540 359 4016ft 233kts
18-Oct-17 20:18 47.643954 -122.398627 93 3445ft 201kts
18-Oct-17 20:19 47.640430 -122.343602 134 2985ft 170kts
18-Oct-17 20:20 47.615831 -122.320953 153 2977ft 126kts
18-Oct-17 20:21 47.591916 -122.310107 172 2418ft 127kts
18-Oct-17 20:22 47.565344 -122.307492 176 1892ft 120kts
18-Oct-17 20:23 47.540489 -122.307030 180 1894ft 124kts
18-Oct-17 20:24 47.516431 -122.307302 182 1437ft 117kts
18-Oct-17 20:25 47.492434 -122.307475 179 997ft 126kts
18-Oct-17 20:26 47.468053 -122.307700 181 543ft 115kts
18-Oct-17 20:27 47.455554 -122.306824 134 428ft 10kts
18-Oct-17 20:28 47.455338 -122.306431 135 429ft 0kts
18-Oct-17 20:29 47.455338 -122.306431 135 429ft 0kts
18-Oct-17 20:30 47.453862 -122.306192 180 423ft 19kts
18-Oct-17 20:31 47.451285 -122.306157 169 412ft 19kts
18-Oct-17 20:32 47.450539 -122.303598 30 410ft 0kts

Navigation Log

Ident Type
Flight plan parsing failed, navigation log unavailable